Time;durP1;ratioP1;P1;durP2;ratioP2;P2;SDS_P1;SDS_P2;PMS_P1;PMS_P2;Temp;Humidity;BMP_temperature;BMP_pressure;BME280_temperature;BME280_humidity;BME280_pressure;Samples;Min_cycle;Max_cycle;Signal;HPM_P1;HPM_P2
2023/11/14 00:00:33;;;;;;;;;;;11.40;91.50;;;;;;5108514;28;20289;-72
2023/11/14 00:03:00;;;;;;;;;;;11.30;91.60;;;;;;5090200;28;20015;-72
2023/11/14 00:05:25;;;;;;;;;;;11.30;91.60;;;;;;5108513;28;19915;-72
2023/11/14 00:07:51;;;;;;;;;;;11.30;91.60;;;;;;5089912;28;20328;-73
2023/11/14 00:10:17;;;;;;;;;;;11.20;91.60;;;;;;5108516;28;20279;-72
2023/11/14 00:12:42;;;;;;;;;;;11.30;91.70;;;;;;5090222;28;19916;-72
2023/11/14 00:15:08;;;;;;;;;;;11.30;91.70;;;;;;5108895;28;19961;-72
2023/11/14 00:17:34;;;;;;;;;;;11.40;91.80;;;;;;5090215;28;19916;-72
2023/11/14 00:20:00;;;;;;;;;;;11.40;92.00;;;;;;5108365;28;19919;-72
2023/11/14 00:22:25;;;;;;;;;;;11.50;91.70;;;;;;5108270;28;19920;-72
2023/11/14 00:24:52;;;;;;;;;;;11.60;91.90;;;;;;5108314;28;19916;-72
2023/11/14 00:27:17;;;;;;;;;;;11.60;91.70;;;;;;5108315;28;19920;-72
2023/11/14 00:29:43;;;;;;;;;;;11.60;91.70;;;;;;5108237;28;20066;-72
2023/11/14 00:32:09;;;;;;;;;;;11.70;91.70;;;;;;5091229;28;19919;-72
2023/11/14 00:34:35;;;;;;;;;;;11.70;91.70;;;;;;5079747;28;19920;-72
2023/11/14 00:37:01;;;;;;;;;;;11.70;91.70;;;;;;5115052;28;19912;-72
2023/11/14 00:39:27;;;;;;;;;;;11.70;91.70;;;;;;5115079;28;19923;-73
2023/11/14 00:41:53;;;;;;;;;;;11.70;91.70;;;;;;5114934;28;19935;-72
2023/11/14 00:44:22;;;;;;;;;;;11.70;91.60;;;;;;5115004;28;19982;-72
2023/11/14 00:46:48;;;;;;;;;;;11.70;91.70;;;;;;5114942;28;20376;-72
2023/11/14 00:49:14;;;;;;;;;;;11.70;91.70;;;;;;5115055;28;19918;-73
2023/11/14 00:51:39;;;;;;;;;;;11.70;91.60;;;;;;5115063;28;19912;-72
2023/11/14 00:54:05;;;;;;;;;;;11.60;91.60;;;;;;5114853;28;20325;-72
2023/11/14 00:56:31;;;;;;;;;;;11.60;91.60;;;;;;5114817;28;20010;-73
2023/11/14 00:58:56;;;;;;;;;;;11.50;91.60;;;;;;5116191;28;19994;-72
2023/11/14 01:01:22;;;;;;;;;;;11.50;91.60;;;;;;5115162;28;19950;-72
2023/11/14 01:03:47;;;;;;;;;;;11.40;91.70;;;;;;5114891;28;19919;-72
2023/11/14 01:06:13;;;;;;;;;;;11.40;91.70;;;;;;5114798;28;20321;-72
2023/11/14 01:08:39;;;;;;;;;;;11.40;91.70;;;;;;5114540;28;19924;-73
2023/11/14 01:11:04;;;;;;;;;;;11.30;91.70;;;;;;5114685;28;20386;-72
2023/11/14 01:13:30;;;;;;;;;;;11.30;91.70;;;;;;5096375;28;19942;-72
2023/11/14 01:15:55;;;;;;;;;;;11.30;91.70;;;;;;5114548;28;19915;-72
2023/11/14 01:18:21;;;;;;;;;;;11.40;91.80;;;;;;5079459;28;19912;-72
2023/11/14 01:20:47;;;;;;;;;;;11.40;91.80;;;;;;5096704;28;19991;-73
2023/11/14 01:23:13;;;;;;;;;;;11.50;91.80;;;;;;5114620;28;20371;-72
2023/11/14 01:25:39;;;;;;;;;;;11.50;91.80;;;;;;5114722;28;19912;-72
2023/11/14 01:28:05;;;;;;;;;;;11.50;91.70;;;;;;5114622;28;19957;-72
2023/11/14 01:30:30;;;;;;;;;;;11.50;91.70;;;;;;5114393;28;20264;-72
2023/11/14 01:32:56;;;;;;;;;;;11.50;91.70;;;;;;5114511;28;19947;-72
2023/11/14 01:35:22;;;;;;;;;;;11.50;91.70;;;;;;5114368;28;19920;-72
2023/11/14 01:37:49;;;;;;;;;;;11.50;91.70;;;;;;5114468;28;19924;-73
2023/11/14 01:40:14;;;;;;;;;;;11.50;91.70;;;;;;5114378;28;20018;-72
2023/11/14 01:42:40;;;;;;;;;;;11.50;91.70;;;;;;5114453;28;20026;-72
2023/11/14 01:45:06;;;;;;;;;;;11.60;91.70;;;;;;5111702;28;19915;-72
2023/11/14 01:47:31;;;;;;;;;;;11.60;91.70;;;;;;5111217;28;19912;-72
2023/11/14 01:49:57;;;;;;;;;;;11.60;91.70;;;;;;5111206;28;19920;-72
2023/11/14 01:52:23;;;;;;;;;;;11.60;91.70;;;;;;5111118;28;20265;-73
2023/11/14 01:54:49;;;;;;;;;;;11.60;91.70;;;;;;5111020;28;19911;-72
2023/11/14 01:57:15;;;;;;;;;;;11.60;91.70;;;;;;5092707;28;19960;-73
2023/11/14 01:59:44;;;;;;;;;;;11.60;91.70;;;;;;5110858;28;20356;-72
2023/11/14 02:02:11;;;;;;;;;;;11.60;91.70;;;;;;5092404;28;19962;-72
2023/11/14 02:04:37;;;;;;;;;;;11.60;91.70;;;;;;5111138;28;19912;-73
2023/11/14 02:07:03;;;;;;;;;;;11.60;91.60;;;;;;5110824;28;19914;-72
2023/11/14 02:09:29;;;;;;;;;;;11.60;91.60;;;;;;5110518;28;20274;-73
2023/11/14 02:11:57;;;;;;;;;;;11.50;91.60;;;;;;5110650;28;19911;-73
2023/11/14 02:14:23;;;;;;;;;;;11.50;91.60;;;;;;5110538;28;20348;-72
2023/11/14 02:16:48;;;;;;;;;;;11.40;91.60;;;;;;5110592;28;19998;-72
2023/11/14 02:19:14;;;;;;;;;;;11.40;91.60;;;;;;5110667;28;19919;-72
2023/11/14 02:21:41;;;;;;;;;;;11.30;91.70;;;;;;5110526;28;19998;-72
2023/11/14 02:24:08;;;;;;;;;;;11.30;91.70;;;;;;5110609;28;19935;-72
2023/11/14 02:26:34;;;;;;;;;;;11.30;91.70;;;;;;5092347;28;20364;-72
2023/11/14 02:29:00;;;;;;;;;;;11.20;91.60;;;;;;5092149;28;19916;-72
2023/11/14 02:31:26;;;;;;;;;;;11.20;91.60;;;;;;5110545;28;19959;-72
2023/11/14 02:33:51;;;;;;;;;;;11.20;91.60;;;;;;5110471;28;19984;-72
2023/11/14 02:36:17;;;;;;;;;;;11.20;91.70;;;;;;5110201;28;19912;-72
2023/11/14 02:38:43;;;;;;;;;;;11.20;91.60;;;;;;5110612;28;19954;-72
2023/11/14 02:41:08;;;;;;;;;;;11.20;91.70;;;;;;5110533;28;20326;-72
2023/11/14 02:43:34;;;;;;;;;;;11.10;91.60;;;;;;5110137;28;19928;-72
2023/11/14 02:45:59;;;;;;;;;;;11.20;91.70;;;;;;5110028;28;19916;-72
2023/11/14 02:48:25;;;;;;;;;;;11.20;91.80;;;;;;5110361;28;20381;-72
2023/11/14 02:50:54;;;;;;;;;;;11.20;91.70;;;;;;5109945;28;19958;-72
2023/11/14 02:53:20;;;;;;;;;;;11.30;91.70;;;;;;5110384;28;19919;-72
2023/11/14 02:55:52;;;;;;;;;;;11.30;91.70;;;;;;5109108;28;20009;-72
2023/11/14 02:58:18;;;;;;;;;;;11.30;91.70;;;;;;5109699;28;19908;-72
2023/11/14 03:00:45;;;;;;;;;;;11.30;91.70;;;;;;5091543;28;19917;-72
2023/11/14 03:03:14;;;;;;;;;;;11.30;91.60;;;;;;5109706;28;19955;-72
2023/11/14 03:05:41;;;;;;;;;;;11.30;91.60;;;;;;5109746;28;19919;-72
2023/11/14 03:08:06;;;;;;;;;;;11.20;91.60;;;;;;5109738;28;19920;-72
2023/11/14 03:10:32;;;;;;;;;;;11.20;91.60;;;;;;5109484;28;19911;-72
2023/11/14 03:12:58;;;;;;;;;;;11.20;91.60;;;;;;5091268;28;19920;-72
2023/11/14 03:15:23;;;;;;;;;;;11.20;91.60;;;;;;5109368;28;19916;-72
2023/11/14 03:17:49;;;;;;;;;;;11.20;91.60;;;;;;5109513;28;19994;-72
2023/11/14 03:20:15;;;;;;;;;;;11.10;91.60;;;;;;5109430;28;19908;-72
2023/11/14 03:22:41;;;;;;;;;;;11.10;91.60;;;;;;5109302;28;20402;-72
2023/11/14 03:25:06;;;;;;;;;;;11.00;91.60;;;;;;5109259;28;19912;-72
2023/11/14 03:27:32;;;;;;;;;;;11.00;91.60;;;;;;5109332;28;20331;-72
2023/11/14 03:29:59;;;;;;;;;;;11.00;91.60;;;;;;5090980;28;19916;-72
2023/11/14 03:32:24;;;;;;;;;;;11.00;91.70;;;;;;5090790;28;20010;-72
2023/11/14 03:34:50;;;;;;;;;;;11.00;91.70;;;;;;5109001;28;20010;-72
2023/11/14 03:37:16;;;;;;;;;;;11.00;91.70;;;;;;5109118;28;19912;-72
2023/11/14 03:39:42;;;;;;;;;;;11.00;91.70;;;;;;5108907;28;19988;-72
2023/11/14 03:42:07;;;;;;;;;;;11.00;91.70;;;;;;5108969;28;20252;-72
2023/11/14 03:44:33;;;;;;;;;;;11.00;91.70;;;;;;5108999;28;19921;-72
2023/11/14 03:46:58;;;;;;;;;;;11.00;91.70;;;;;;5090760;28;19937;-72
2023/11/14 03:49:24;;;;;;;;;;;11.00;91.60;;;;;;5108854;28;19919;-72
2023/11/14 03:51:49;;;;;;;;;;;11.00;91.60;;;;;;5108729;28;20371;-72
2023/11/14 03:54:15;;;;;;;;;;;11.00;91.60;;;;;;5109064;28;20274;-72
2023/11/14 03:56:41;;;;;;;;;;;11.00;91.60;;;;;;5108731;28;19908;-72
2023/11/14 03:59:06;;;;;;;;;;;11.00;91.60;;;;;;5108635;28;19916;-72
2023/11/14 04:01:32;;;;;;;;;;;10.90;91.60;;;;;;5108599;28;19908;-72
2023/11/14 04:03:57;;;;;;;;;;;10.90;91.60;;;;;;5108672;28;19911;-72
2023/11/14 04:06:23;;;;;;;;;;;10.90;91.60;;;;;;5090293;28;20002;-72
2023/11/14 04:08:48;;;;;;;;;;;10.90;91.60;;;;;;5107660;28;20458;-72
2023/11/14 04:11:14;;;;;;;;;;;10.90;91.60;;;;;;5108461;28;19916;-73
2023/11/14 04:13:39;;;;;;;;;;;10.90;91.60;;;;;;5108499;28;19962;-72
2023/11/14 04:16:05;;;;;;;;;;;10.90;91.70;;;;;;5108425;28;19916;-72
2023/11/14 04:18:31;;;;;;;;;;;10.90;91.60;;;;;;5108818;28;19912;-73
2023/11/14 04:20:58;;;;;;;;;;;10.90;91.70;;;;;;5108348;28;20461;-72
2023/11/14 04:23:24;;;;;;;;;;;10.90;91.60;;;;;;5108356;28;19908;-72
2023/11/14 04:25:49;;;;;;;;;;;10.90;91.60;;;;;;5108375;28;20280;-73
2023/11/14 04:28:15;;;;;;;;;;;10.90;91.60;;;;;;5108490;28;19915;-72
2023/11/14 04:30:40;;;;;;;;;;;10.90;91.60;;;;;;5108402;28;19918;-72
2023/11/14 04:33:06;;;;;;;;;;;10.80;91.50;;;;;;5108450;28;19919;-72
2023/11/14 04:35:32;;;;;;;;;;;10.80;91.50;;;;;;5108218;28;19916;-72
2023/11/14 04:37:57;;;;;;;;;;;10.80;91.50;;;;;;5108133;28;19912;-72
2023/11/14 04:40:23;;;;;;;;;;;10.70;91.50;;;;;;5089887;28;19973;-72
2023/11/14 04:42:49;;;;;;;;;;;10.70;91.50;;;;;;5108116;28;20326;-72
2023/11/14 04:45:14;;;;;;;;;;;10.60;91.50;;;;;;5108126;28;19919;-72
2023/11/14 04:47:40;;;;;;;;;;;10.60;91.60;;;;;;5108069;28;19916;-72
2023/11/14 04:50:06;;;;;;;;;;;10.60;91.60;;;;;;5089897;28;19921;-72
2023/11/14 04:52:32;;;;;;;;;;;10.60;91.60;;;;;;5089778;28;19908;-72
2023/11/14 04:54:58;;;;;;;;;;;10.50;91.60;;;;;;5107901;28;19919;-72
2023/11/14 04:57:24;;;;;;;;;;;10.60;91.70;;;;;;5107906;28;19915;-72
2023/11/14 04:59:50;;;;;;;;;;;10.60;91.70;;;;;;5108039;28;19915;-72
2023/11/14 05:02:15;;;;;;;;;;;10.70;91.80;;;;;;5108008;28;19988;-72
2023/11/14 05:04:42;;;;;;;;;;;10.80;91.70;;;;;;5089649;28;19912;-72
2023/11/14 05:07:08;;;;;;;;;;;10.80;91.70;;;;;;5089716;28;19920;-72
2023/11/14 05:09:35;;;;;;;;;;;10.90;91.70;;;;;;5107870;28;20024;-72
2023/11/14 05:12:01;;;;;;;;;;;10.90;91.60;;;;;;5089644;28;20421;-72
2023/11/14 05:14:26;;;;;;;;;;;10.90;91.60;;;;;;5107767;28;19919;-72
2023/11/14 05:16:56;;;;;;;;;;;10.90;91.60;;;;;;5108105;28;19915;-72
2023/11/14 05:19:24;;;;;;;;;;;10.80;91.60;;;;;;5109904;28;19961;-72
2023/11/14 05:21:50;;;;;;;;;;;10.80;91.60;;;;;;5093448;28;20275;-72
2023/11/14 05:24:16;;;;;;;;;;;10.80;91.60;;;;;;5111684;28;19925;-72
2023/11/14 05:26:42;;;;;;;;;;;10.80;91.60;;;;;;5111602;28;19912;-72
2023/11/14 05:29:07;;;;;;;;;;;10.80;91.60;;;;;;5111721;28;19914;-72
2023/11/14 05:31:33;;;;;;;;;;;10.80;91.60;;;;;;5111550;28;19966;-72
2023/11/14 05:33:59;;;;;;;;;;;10.80;91.60;;;;;;5111400;28;19912;-72
2023/11/14 05:36:25;;;;;;;;;;;10.70;91.60;;;;;;5111880;28;20002;-72
2023/11/14 05:38:50;;;;;;;;;;;10.70;91.60;;;;;;5111488;28;19939;-72
2023/11/14 05:41:16;;;;;;;;;;;10.70;91.60;;;;;;5111302;28;19915;-72
2023/11/14 05:43:42;;;;;;;;;;;10.70;91.60;;;;;;5111222;28;19912;-72
2023/11/14 05:46:08;;;;;;;;;;;10.60;91.60;;;;;;5111231;28;19912;-72
2023/11/14 05:48:34;;;;;;;;;;;10.60;91.60;;;;;;5092872;28;20355;-72
2023/11/14 05:51:00;;;;;;;;;;;10.70;91.70;;;;;;5110934;28;20394;-72
2023/11/14 05:53:25;;;;;;;;;;;10.70;91.70;;;;;;5111081;28;20008;-72
2023/11/14 05:55:51;;;;;;;;;;;10.70;91.60;;;;;;5110934;28;20260;-72
2023/11/14 05:58:16;;;;;;;;;;;10.70;91.50;;;;;;5111031;28;19943;-72
2023/11/14 06:00:42;;;;;;;;;;;10.60;91.50;;;;;;5110776;28;20290;-72
2023/11/14 06:03:08;;;;;;;;;;;10.60;91.50;;;;;;5110954;28;19915;-72
2023/11/14 06:05:33;;;;;;;;;;;10.50;91.50;;;;;;5092553;28;19915;-72
2023/11/14 06:08:00;;;;;;;;;;;10.50;91.50;;;;;;5110434;28;20316;-72
2023/11/14 06:10:25;;;;;;;;;;;10.40;91.50;;;;;;5110709;28;20360;-71
2023/11/14 06:12:51;;;;;;;;;;;10.40;91.50;;;;;;5110681;28;19911;-72
2023/11/14 06:15:17;;;;;;;;;;;10.40;91.60;;;;;;5092539;28;20010;-72
2023/11/14 06:17:44;;;;;;;;;;;10.40;91.60;;;;;;5110468;28;19919;-72
2023/11/14 06:20:11;;;;;;;;;;;10.50;91.60;;;;;;5092503;28;20011;-72
2023/11/14 06:22:37;;;;;;;;;;;10.50;91.60;;;;;;5110527;28;20319;-72
2023/11/14 06:25:03;;;;;;;;;;;10.50;91.60;;;;;;5092266;28;19915;-72
2023/11/14 06:27:29;;;;;;;;;;;10.60;91.70;;;;;;5110384;28;20343;-72
2023/11/14 06:29:56;;;;;;;;;;;10.70;91.70;;;;;;5109579;28;19916;-72
2023/11/14 06:32:22;;;;;;;;;;;10.70;91.70;;;;;;5110162;28;19999;-72
2023/11/14 06:34:51;;;;;;;;;;;10.80;91.70;;;;;;5091916;28;19916;-72
2023/11/14 06:37:16;;;;;;;;;;;10.90;91.70;;;;;;5091701;28;19912;-72
2023/11/14 06:39:42;;;;;;;;;;;10.90;91.60;;;;;;5091845;28;20421;-72
2023/11/14 06:42:07;;;;;;;;;;;11.00;91.60;;;;;;5109930;28;19915;-72
2023/11/14 06:44:36;;;;;;;;;;;11.10;91.70;;;;;;5091786;28;19911;-72
2023/11/14 06:47:02;;;;;;;;;;;11.10;91.60;;;;;;5091458;28;20380;-72
2023/11/14 06:49:28;;;;;;;;;;;11.10;91.60;;;;;;5109908;28;19930;-72
2023/11/14 06:51:53;;;;;;;;;;;11.10;91.60;;;;;;5091550;28;19912;-72
2023/11/14 06:54:19;;;;;;;;;;;11.20;91.60;;;;;;5109671;28;19927;-72
2023/11/14 06:56:44;;;;;;;;;;;11.20;91.60;;;;;;5109658;28;19912;-72
2023/11/14 06:59:10;;;;;;;;;;;11.20;91.60;;;;;;5109495;28;19911;-72
2023/11/14 07:01:36;;;;;;;;;;;11.20;91.60;;;;;;5109650;28;19918;-72
2023/11/14 07:04:02;;;;;;;;;;;11.30;91.70;;;;;;5109495;28;20364;-72
2023/11/14 07:06:28;;;;;;;;;;;11.30;91.70;;;;;;5109568;28;20283;-72
2023/11/14 07:08:54;;;;;;;;;;;11.30;91.60;;;;;;5109136;28;19934;-72
2023/11/14 07:11:21;;;;;;;;;;;11.30;91.60;;;;;;5109375;28;19916;-72
2023/11/14 07:13:47;;;;;;;;;;;11.30;91.60;;;;;;5109473;28;20010;-72
2023/11/14 07:16:13;;;;;;;;;;;11.20;91.60;;;;;;5109201;28;20006;-72
2023/11/14 07:18:39;;;;;;;;;;;11.30;91.70;;;;;;5109303;28;19915;-72
2023/11/14 07:21:05;;;;;;;;;;;11.30;91.70;;;;;;5090832;28;20014;-72
2023/11/14 07:23:30;;;;;;;;;;;11.30;91.70;;;;;;5090746;28;20022;-72
2023/11/14 07:25:56;;;;;;;;;;;11.30;91.70;;;;;;5109127;28;19915;-72
2023/11/14 07:28:21;;;;;;;;;;;11.40;91.70;;;;;;5073758;28;19930;-72
2023/11/14 07:30:48;;;;;;;;;;;11.40;91.70;;;;;;5108555;28;19957;-72
2023/11/14 07:33:17;;;;;;;;;;;11.40;91.70;;;;;;5108997;28;19919;-72
2023/11/14 07:35:42;;;;;;;;;;;11.50;91.70;;;;;;5108356;28;19911;-72
2023/11/14 07:38:08;;;;;;;;;;;11.50;91.70;;;;;;5108256;28;20151;-72
2023/11/14 07:40:34;;;;;;;;;;;11.50;91.70;;;;;;5107751;28;19922;-74
2023/11/14 07:43:02;;;;;;;;;;;11.40;91.60;;;;;;5107721;28;19954;-72
2023/11/14 07:45:28;;;;;;;;;;;11.40;91.60;;;;;;5108336;28;19952;-72
2023/11/14 07:47:54;;;;;;;;;;;11.30;91.60;;;;;;5090142;28;19995;-73
2023/11/14 07:50:20;;;;;;;;;;;11.20;91.60;;;;;;5108066;28;20002;-72
2023/11/14 07:52:45;;;;;;;;;;;11.10;91.60;;;;;;5108275;28;19912;-71
2023/11/14 07:55:11;;;;;;;;;;;11.00;91.60;;;;;;5108023;28;19920;-72
2023/11/14 07:57:37;;;;;;;;;;;10.90;91.60;;;;;;5109340;28;20252;-71
2023/11/14 08:00:07;;;;;;;;;;;10.90;91.70;;;;;;5107669;28;19946;-71
2023/11/14 08:02:32;;;;;;;;;;;10.90;91.80;;;;;;5071497;28;19970;-71
2023/11/14 08:04:58;;;;;;;;;;;10.90;91.80;;;;;;5106960;28;19995;-70
2023/11/14 08:07:24;;;;;;;;;;;10.90;91.70;;;;;;5107679;28;19995;-71
2023/11/14 08:09:49;;;;;;;;;;;10.90;91.80;;;;;;5107545;28;20012;-72
2023/11/14 08:12:15;;;;;;;;;;;11.00;91.80;;;;;;5107919;28;20228;-71
2023/11/14 08:14:41;;;;;;;;;;;11.00;91.70;;;;;;5107332;28;20056;-72
2023/11/14 08:17:06;;;;;;;;;;;11.00;91.70;;;;;;5107593;28;19923;-72
2023/11/14 08:19:32;;;;;;;;;;;11.00;91.60;;;;;;5108778;28;20462;-77
2023/11/14 08:22:03;;;;;;;;;;;10.90;91.60;;;;;;5108480;28;20301;-78
2023/11/14 08:24:29;;;;;;;;;;;10.90;91.60;;;;;;5108210;28;19960;-79
2023/11/14 08:26:54;;;;;;;;;;;10.90;91.70;;;;;;5107303;28;19991;-78
2023/11/14 08:29:20;;;;;;;;;;;10.80;91.70;;;;;;5108504;28;20029;-78
2023/11/14 08:31:46;;;;;;;;;;;10.80;91.70;;;;;;5107675;28;20469;-78
2023/11/14 08:34:12;;;;;;;;;;;10.80;91.70;;;;;;5089729;28;19990;-78
2023/11/14 08:36:38;;;;;;;;;;;10.80;91.70;;;;;;5107806;28;19919;-79
2023/11/14 08:39:03;;;;;;;;;;;10.80;91.70;;;;;;5089904;28;20265;-76
2023/11/14 08:41:29;;;;;;;;;;;10.80;91.70;;;;;;5107908;28;19932;-74
2023/11/14 08:43:55;;;;;;;;;;;10.80;91.70;;;;;;5072763;28;19928;-79
2023/11/14 08:46:20;;;;;;;;;;;10.80;91.70;;;;;;5089554;28;19912;-77
2023/11/14 08:48:46;;;;;;;;;;;10.80;91.70;;;;;;5089274;28;20364;-77
2023/11/14 08:51:15;;;;;;;;;;;10.70;91.60;;;;;;5107574;28;19914;-78
2023/11/14 08:53:43;;;;;;;;;;;10.70;91.70;;;;;;5109241;28;20332;-80
2023/11/14 08:56:09;;;;;;;;;;;10.80;91.80;;;;;;5094109;28;20364;-78
2023/11/14 08:58:36;;;;;;;;;;;10.80;91.80;;;;;;5112137;28;19912;-68
2023/11/14 09:01:02;;;;;;;;;;;10.90;91.80;;;;;;5111881;28;19919;-77
2023/11/14 09:03:27;;;;;;;;;;;11.00;91.80;;;;;;5111324;28;20363;-78
2023/11/14 09:05:53;;;;;;;;;;;11.30;92.30;;;;;;5111758;28;20284;-78
2023/11/14 09:08:18;;;;;;;;;;;11.80;92.50;;;;;;5111571;28;19942;-78
2023/11/14 09:10:44;;;;;;;;;;;12.00;91.90;;;;;;5092550;28;20287;-77
2023/11/14 09:13:13;;;;;;;;;;;12.00;91.80;;;;;;5113037;28;19923;-81
2023/11/14 09:15:39;;;;;;;;;;;12.00;91.90;;;;;;5102161;28;20395;-79
2023/11/14 09:18:05;;;;;;;;;;;12.30;92.10;;;;;;5094537;28;20268;-79
2023/11/14 09:20:30;;;;;;;;;;;12.50;92.10;;;;;;5111210;28;19923;-78
2023/11/14 09:22:56;;;;;;;;;;;12.80;92.30;;;;;;5111930;28;19918;-79
2023/11/14 09:25:22;;;;;;;;;;;13.00;92.10;;;;;;5111733;28;19912;-80
2023/11/14 09:27:48;;;;;;;;;;;13.10;92.10;;;;;;5111122;28;19908;-72
2023/11/14 09:30:14;;;;;;;;;;;13.60;92.60;;;;;;5092138;28;19941;-80
2023/11/14 09:32:41;;;;;;;;;;;14.20;92.70;;;;;;5111260;28;19919;-80
2023/11/14 09:35:07;;;;;;;;;;;14.80;92.70;;;;;;5111141;28;19966;-79
2023/11/14 09:37:33;;;;;;;;;;;15.40;92.60;;;;;;5093523;28;19912;-79
2023/11/14 09:39:59;;;;;;;;;;;15.70;92.30;;;;;;5112413;28;19951;-80
2023/11/14 09:42:25;;;;;;;;;;;16.00;92.10;;;;;;5113357;28;19915;-79
2023/11/14 09:44:50;;;;;;;;;;;15.90;91.80;;;;;;5111543;28;19943;-79
2023/11/14 09:47:17;;;;;;;;;;;15.80;91.80;;;;;;5111479;28;20105;-78
2023/11/14 09:49:42;;;;;;;;;;;15.70;91.90;;;;;;5093265;28;19912;-80
2023/11/14 09:52:12;;;;;;;;;;;15.90;92.10;;;;;;5111545;28;20053;-67
2023/11/14 09:54:38;;;;;;;;;;;16.00;92.30;;;;;;5087543;28;20049;-77
2023/11/14 09:57:05;;;;;;;;;;;16.20;92.20;;;;;;5092166;28;19987;-75
2023/11/14 09:59:32;;;;;;;;;;;16.30;92.10;;;;;;5098300;28;19923;-75
2023/11/14 10:01:58;;;;;;;;;;;16.40;92.40;;;;;;5110594;28;20360;-75
2023/11/14 10:04:23;;;;;;;;;;;16.60;92.20;;;;;;5106595;28;20068;-76
2023/11/14 10:06:51;;;;;;;;;;;16.60;92.00;;;;;;5094652;28;19920;-76
2023/11/14 10:09:18;;;;;;;;;;;16.30;91.70;;;;;;5110220;28;19981;-76
2023/11/14 10:11:48;;;;;;;;;;;16.00;91.80;;;;;;5107264;28;19915;-76
2023/11/14 10:14:14;;;;;;;;;;;16.00;92.10;;;;;;5109580;28;19914;-76
2023/11/14 10:16:40;;;;;;;;;;;16.20;92.60;;;;;;5107342;28;20401;-76
2023/11/14 10:19:10;;;;;;;;;;;16.50;92.50;;;;;;5109801;28;19911;-76
2023/11/14 10:21:36;;;;;;;;;;;16.50;92.10;;;;;;5110234;28;20450;-76
2023/11/14 10:24:09;;;;;;;;;;;16.20;91.90;;;;;;5090583;28;19916;-75
2023/11/14 10:26:35;;;;;;;;;;;16.30;92.40;;;;;;5112900;27;19967;-75
2023/11/14 10:29:02;;;;;;;;;;;16.70;92.70;;;;;;5084517;28;19912;-72
2023/11/14 10:31:34;;;;;;;;;;;17.00;92.60;;;;;;5116870;27;19916;-73
2023/11/14 10:34:00;;;;;;;;;;;17.30;92.60;;;;;;5119355;27;19919;-74
2023/11/14 10:36:26;;;;;;;;;;;17.70;92.70;;;;;;5113814;27;19938;-75
2023/11/14 10:39:05;;;;;;;;;;;17.80;92.20;;;;;;5115248;27;19958;-73
2023/11/14 10:41:32;;;;;;;;;;;17.60;91.90;;;;;;5110304;27;19923;-74
2023/11/14 10:44:10;;;;;;;;;;;17.30;91.80;;;;;;5119319;27;19907;-74
2023/11/14 10:46:36;;;;;;;;;;;17.00;91.70;;;;;;5104070;27;19986;-75
2023/11/14 10:49:03;;;;;;;;;;;16.70;91.90;;;;;;5091893;28;19950;-76
2023/11/14 10:51:38;;;;;;;;;;;16.40;91.90;;;;;;5110244;28;19919;-78
2023/11/14 10:54:06;;;;;;;;;;;16.10;91.70;;;;;;5103697;28;19922;-66
2023/11/14 10:56:36;;;;;;;;;;;15.80;91.80;;;;;;5109767;28;19931;-75
2023/11/14 10:59:05;;;;;;;;;;;15.60;92.10;;;;;;5109970;28;19935;-74
2023/11/14 11:01:32;;;;;;;;;;;15.50;92.20;;;;;;5110219;28;19912;-75
2023/11/14 11:03:58;;;;;;;;;;;15.90;92.70;;;;;;5095565;28;19953;-74
2023/11/14 11:06:26;;;;;;;;;;;16.30;92.80;;;;;;5090357;28;19919;-75
2023/11/14 11:08:53;;;;;;;;;;;16.60;92.50;;;;;;5090221;28;20390;-77
2023/11/14 11:11:20;;;;;;;;;;;16.70;92.30;;;;;;5093091;28;19919;-73
2023/11/14 11:13:46;;;;;;;;;;;16.70;92.10;;;;;;5085843;28;20425;-72
2023/11/14 11:16:12;;;;;;;;;;;16.50;91.90;;;;;;5065137;28;19917;-73
2023/11/14 11:18:40;;;;;;;;;;;16.40;92.10;;;;;;5088911;28;19966;-74
2023/11/14 11:21:09;;;;;;;;;;;16.50;92.40;;;;;;5089248;28;20002;-73
2023/11/14 11:23:54;;;;;;;;;;;16.80;92.70;;;;;;5089302;28;19916;-72
2023/11/14 11:26:19;;;;;;;;;;;17.00;92.50;;;;;;5089096;28;19976;-73
2023/11/14 11:28:45;;;;;;;;;;;16.90;92.20;;;;;;5089100;28;20311;-73
2023/11/14 11:31:15;;;;;;;;;;;17.00;92.50;;;;;;5088866;28;20027;-72
2023/11/14 11:33:44;;;;;;;;;;;17.20;92.70;;;;;;5089143;28;19908;-75
2023/11/14 11:36:19;;;;;;;;;;;17.50;92.80;;;;;;5102958;28;19973;-78
2023/11/14 11:38:55;;;;;;;;;;;17.50;92.40;;;;;;5109390;28;19915;-75
2023/11/14 11:41:21;;;;;;;;;;;17.40;92.40;;;;;;5108894;28;20272;-73
2023/11/14 11:43:57;;;;;;;;;;;17.20;92.30;;;;;;5108354;28;20450;-74
2023/11/14 11:46:32;;;;;;;;;;;17.10;92.50;;;;;;5110758;28;19908;-78
2023/11/14 11:49:10;;;;;;;;;;;17.20;92.70;;;;;;5109376;28;19947;-77
2023/11/14 11:51:43;;;;;;;;;;;17.30;92.80;;;;;;5109870;28;20383;-77
2023/11/14 11:54:27;;;;;;;;;;;17.40;92.70;;;;;;5110052;28;19965;-79
2023/11/14 11:57:05;;;;;;;;;;;17.30;92.40;;;;;;5091764;28;19915;-79
2023/11/14 11:59:54;;;;;;;;;;;17.10;92.20;;;;;;5091718;28;20491;-77
2023/11/14 12:02:23;;;;;;;;;;;16.60;92.00;;;;;;5080637;28;19915;-78
2023/11/14 12:04:51;;;;;;;;;;;16.30;92.30;;;;;;5110373;28;20352;-78
2023/11/14 12:07:17;;;;;;;;;;;16.20;92.40;;;;;;5119915;27;19915;-79
2023/11/14 12:09:45;;;;;;;;;;;16.30;92.90;;;;;;5118824;27;20343;-76
2023/11/14 12:12:12;;;;;;;;;;;16.70;93.20;;;;;;5094859;28;19946;-75
2023/11/14 12:14:41;;;;;;;;;;;17.10;93.20;;;;;;5108746;28;20311;-77
2023/11/14 12:17:07;;;;;;;;;;;17.20;92.60;;;;;;5109622;28;19916;-75
2023/11/14 12:19:33;;;;;;;;;;;17.10;92.60;;;;;;5109692;28;20086;-77
2023/11/14 12:21:59;;;;;;;;;;;17.10;92.50;;;;;;5109074;28;19911;-77
2023/11/14 12:24:24;;;;;;;;;;;16.80;92.10;;;;;;5073858;28;20010;-78
2023/11/14 12:26:50;;;;;;;;;;;16.40;92.00;;;;;;5109410;28;19933;-78
2023/11/14 12:29:16;;;;;;;;;;;16.10;92.00;;;;;;5108211;28;19911;-73
2023/11/14 12:31:50;;;;;;;;;;;15.90;92.10;;;;;;5108968;28;19912;-76
2023/11/14 12:34:25;;;;;;;;;;;15.70;92.20;;;;;;5108951;28;19908;-76
2023/11/14 12:37:03;;;;;;;;;;;15.60;92.30;;;;;;5109346;28;19968;-73
2023/11/14 12:39:28;;;;;;;;;;;15.50;92.20;;;;;;5109184;28;19916;-74
2023/11/14 12:41:55;;;;;;;;;;;15.40;92.20;;;;;;5105406;28;19973;-75
2023/11/14 12:44:21;;;;;;;;;;;15.40;92.30;;;;;;5109082;28;19922;-73
2023/11/14 12:46:51;;;;;;;;;;;15.30;92.20;;;;;;5109086;28;19911;-79
2023/11/14 12:49:18;;;;;;;;;;;15.20;92.20;;;;;;5109542;28;19912;-73
2023/11/14 12:51:44;;;;;;;;;;;15.30;92.40;;;;;;5108606;28;19915;-74
2023/11/14 12:54:11;;;;;;;;;;;15.40;92.30;;;;;;5108630;28;20347;-72
2023/11/14 12:56:37;;;;;;;;;;;15.40;92.20;;;;;;5108952;28;19911;-74
2023/11/14 12:59:05;;;;;;;;;;;15.30;92.10;;;;;;5108770;28;19912;-75
2023/11/14 13:01:32;;;;;;;;;;;15.20;92.00;;;;;;5108491;28;19916;-73
2023/11/14 13:03:58;;;;;;;;;;;15.30;92.40;;;;;;5108527;28;19911;-74
2023/11/14 13:06:25;;;;;;;;;;;15.40;92.30;;;;;;5108681;28;20286;-73
2023/11/14 13:08:51;;;;;;;;;;;15.20;92.00;;;;;;5090502;28;19978;-73
2023/11/14 13:11:16;;;;;;;;;;;15.00;91.90;;;;;;5109156;28;20315;-75
2023/11/14 13:13:42;;;;;;;;;;;14.80;92.00;;;;;;5089041;28;19928;-81
2023/11/14 13:16:08;;;;;;;;;;;14.80;92.20;;;;;;5089229;28;20226;-75
2023/11/14 13:18:34;;;;;;;;;;;14.90;92.40;;;;;;5088951;28;20007;-75
2023/11/14 13:20:59;;;;;;;;;;;15.00;92.40;;;;;;5108362;28;19912;-78
2023/11/14 13:23:25;;;;;;;;;;;15.10;92.60;;;;;;5105741;28;19965;-73
2023/11/14 13:25:51;;;;;;;;;;;15.30;92.90;;;;;;5106008;28;19915;-71
2023/11/14 13:28:16;;;;;;;;;;;15.50;92.80;;;;;;5108094;28;19916;-71
2023/11/14 13:30:43;;;;;;;;;;;15.50;93.00;;;;;;5088176;28;19943;-73
2023/11/14 13:33:10;;;;;;;;;;;15.60;92.80;;;;;;5093140;28;20455;-72
2023/11/14 13:35:35;;;;;;;;;;;15.70;92.60;;;;;;5094942;28;19970;-63
2023/11/14 13:38:02;;;;;;;;;;;15.70;92.60;;;;;;5089343;28;19947;-75
2023/11/14 13:40:27;;;;;;;;;;;15.70;92.50;;;;;;5092090;28;19922;-71
2023/11/14 13:42:53;;;;;;;;;;;15.70;92.60;;;;;;5109002;28;20416;-72
2023/11/14 13:45:18;;;;;;;;;;;15.70;92.60;;;;;;5111761;28;20244;-72
2023/11/14 13:47:44;;;;;;;;;;;15.60;92.50;;;;;;5111247;28;19916;-72
2023/11/14 13:50:10;;;;;;;;;;;15.40;92.40;;;;;;5111142;28;20328;-73
2023/11/14 13:52:36;;;;;;;;;;;15.20;92.40;;;;;;5111636;28;19908;-72
2023/11/14 13:55:02;;;;;;;;;;;15.10;92.10;;;;;;5093171;28;20325;-73
2023/11/14 13:57:29;;;;;;;;;;;14.90;92.00;;;;;;5111606;28;20000;-72
2023/11/14 13:59:55;;;;;;;;;;;14.80;92.00;;;;;;5111252;28;19927;-72
2023/11/14 14:02:22;;;;;;;;;;;14.60;92.00;;;;;;5111393;28;19999;-73
2023/11/14 14:04:48;;;;;;;;;;;14.50;92.00;;;;;;5111519;28;19916;-72
2023/11/14 14:07:13;;;;;;;;;;;14.40;92.10;;;;;;5111134;28;19916;-72
2023/11/14 14:09:39;;;;;;;;;;;14.40;92.20;;;;;;5110698;28;20504;-72
2023/11/14 14:12:06;;;;;;;;;;;14.30;92.10;;;;;;5111066;28;19934;-73